Time;durP1;ratioP1;P1;durP2;ratioP2;P2;SDS_P1;SDS_P2;PMS_P1;PMS_P2;Temp;Humidity;BMP_temperature;BMP_pressure;BME280_temperature;BME280_humidity;BME280_pressure;Samples;Min_cycle;Max_cycle;Signal;HPM_P1;HPM_P2
2023/02/10 00:00:27;;;;;;;;;79.00;64.67;;;;;;;;5049592;28;8812;-79
2023/02/10 00:02:54;;;;;;;;;83.00;66.33;;;;;;;;5043670;28;8954;-80
2023/02/10 00:05:22;;;;;;;;;86.33;65.67;;;;;;;;5043659;28;8849;-78
2023/02/10 00:07:49;;;;;;;;;86.00;66.33;;;;;;;;5045246;28;8896;-79
2023/02/10 00:10:16;;;;;;;;;75.67;59.33;;;;;;;;5041619;28;8874;-78
2023/02/10 00:12:43;;;;;;;;;80.33;66.00;;;;;;;;5041090;28;8865;-79
2023/02/10 00:15:12;;;;;;;;;79.67;63.33;;;;;;;;5044491;28;9775;-78
2023/02/10 00:17:39;;;;;;;;;82.00;66.00;;;;;;;;5039910;28;8901;-79
2023/02/10 00:20:08;;;;;;;;;84.67;66.67;;;;;;;;5046603;28;8892;-80
2023/02/10 00:22:36;;;;;;;;;85.67;67.67;;;;;;;;5043466;28;9696;-79
2023/02/10 00:25:04;;;;;;;;;91.33;72.33;;;;;;;;5039189;28;8860;-78
2023/02/10 00:27:31;;;;;;;;;84.00;66.33;;;;;;;;5047896;28;8844;-78
2023/02/10 00:29:59;;;;;;;;;90.00;75.33;;;;;;;;5047533;28;8878;-80
2023/02/10 00:32:28;;;;;;;;;92.00;72.67;;;;;;;;5044136;28;8778;-79
2023/02/10 00:34:55;;;;;;;;;84.67;64.67;;;;;;;;5047823;28;8864;-79
2023/02/10 00:37:22;;;;;;;;;84.33;66.67;;;;;;;;5047567;28;8842;-79
2023/02/10 00:39:50;;;;;;;;;84.67;64.00;;;;;;;;5044212;28;8839;-79
2023/02/10 00:42:17;;;;;;;;;85.00;67.00;;;;;;;;5047099;28;8834;-80
2023/02/10 00:44:45;;;;;;;;;81.67;63.67;;;;;;;;5044774;28;8827;-80
2023/02/10 00:47:12;;;;;;;;;86.33;71.00;;;;;;;;5046363;28;8842;-79
2023/02/10 00:49:41;;;;;;;;;89.33;69.33;;;;;;;;5042383;28;8844;-79
2023/02/10 00:52:08;;;;;;;;;81.67;66.33;;;;;;;;5048441;28;8878;-79
2023/02/10 00:54:35;;;;;;;;;83.33;66.00;;;;;;;;5044025;28;8882;-79
2023/02/10 00:57:03;;;;;;;;;85.00;66.67;;;;;;;;5039941;28;8843;-79
2023/02/10 00:59:30;;;;;;;;;75.00;60.67;;;;;;;;5050100;28;9665;-79
2023/02/10 01:01:57;;;;;;;;;81.67;65.00;;;;;;;;5045156;28;8965;-79
2023/02/10 01:04:25;;;;;;;;;86.33;66.33;;;;;;;;5046829;28;8883;-79
2023/02/10 01:06:54;;;;;;;;;80.33;64.33;;;;;;;;5044653;28;8875;-80
2023/02/10 01:09:21;;;;;;;;;80.67;65.00;;;;;;;;5044060;28;8880;-79
2023/02/10 01:11:48;;;;;;;;;91.33;69.33;;;;;;;;5040495;28;8856;-79
2023/02/10 01:14:15;;;;;;;;;86.00;67.33;;;;;;;;5038972;28;8858;-78
2023/02/10 01:16:43;;;;;;;;;69.33;59.00;;;;;;;;5039191;28;8861;-78
2023/02/10 01:19:11;;;;;;;;;79.33;64.00;;;;;;;;5040377;28;8851;-79
2023/02/10 01:21:38;;;;;;;;;83.00;65.00;;;;;;;;5041577;28;8888;-79
2023/02/10 01:24:07;;;;;;;;;83.67;64.33;;;;;;;;5047038;28;8982;-79
2023/02/10 01:26:35;;;;;;;;;80.00;65.67;;;;;;;;5044152;28;8854;-79
2023/02/10 01:29:02;;;;;;;;;76.33;61.33;;;;;;;;5052496;28;8865;-79
2023/02/10 01:31:29;;;;;;;;;86.67;68.33;;;;;;;;5039790;28;8828;-79
2023/02/10 01:33:57;;;;;;;;;81.67;65.67;;;;;;;;5043397;28;8842;-79
2023/02/10 01:36:26;;;;;;;;;83.33;65.67;;;;;;;;5042280;28;8842;-79
2023/02/10 01:38:54;;;;;;;;;85.33;67.00;;;;;;;;5045241;28;8970;-79
2023/02/10 01:41:23;;;;;;;;;81.33;64.67;;;;;;;;5043607;28;8854;-80
2023/02/10 01:43:59;;;;;;;;;87.33;67.00;;;;;;;;5046632;28;8822;-79
2023/02/10 01:46:27;;;;;;;;;84.00;64.00;;;;;;;;5047930;28;8963;-80
2023/02/10 01:48:56;;;;;;;;;79.33;66.00;;;;;;;;5045961;28;8969;-81
2023/02/10 01:51:29;;;;;;;;;81.67;66.33;;;;;;;;5051160;28;8827;-79
2023/02/10 01:53:56;;;;;;;;;92.00;71.67;;;;;;;;5045241;28;8854;-80
2023/02/10 01:56:25;;;;;;;;;81.67;65.67;;;;;;;;5050776;28;8850;-79
2023/02/10 01:58:52;;;;;;;;;90.33;73.00;;;;;;;;5045024;28;8851;-78
2023/02/10 02:01:19;;;;;;;;;92.00;74.00;;;;;;;;5044780;28;8807;-80
2023/02/10 02:03:47;;;;;;;;;87.33;67.33;;;;;;;;5049759;28;8861;-79
2023/02/10 02:06:14;;;;;;;;;88.67;70.33;;;;;;;;5050110;28;8868;-80
2023/02/10 02:08:42;;;;;;;;;89.00;69.33;;;;;;;;5043548;28;8857;-79
2023/02/10 02:11:21;;;;;;;;;90.33;74.67;;;;;;;;5042638;28;8842;-80
2023/02/10 02:14:11;;;;;;;;;96.33;79.67;;;;;;;;5044219;28;8842;-79
2023/02/10 02:16:53;;;;;;;;;89.33;70.67;;;;;;;;5044119;28;8837;-78
2023/02/10 02:23:11;;;;;;;;;93.00;79.00;;;;;;;;5037118;28;8828;-79
2023/02/10 02:25:53;;;;;;;;;80.33;66.00;;;;;;;;5051408;28;8850;-79
2023/02/10 02:28:27;;;;;;;;;81.33;67.33;;;;;;;;5045082;28;8876;-80
2023/02/10 02:31:25;;;;;;;;;89.67;68.00;;;;;;;;5046192;28;8805;-81
2023/02/10 02:33:58;;;;;;;;;91.33;72.33;;;;;;;;5011402;28;9621;-80
2023/02/10 02:36:30;;;;;;;;;97.67;80.00;;;;;;;;5043868;28;9639;-80
2023/02/10 02:39:01;;;;;;;;;85.33;67.33;;;;;;;;5043675;28;8854;-79
2023/02/10 02:41:30;;;;;;;;;91.00;72.00;;;;;;;;5043898;28;8897;-79
2023/02/10 02:43:59;;;;;;;;;78.33;61.67;;;;;;;;5044611;28;8854;-80
2023/02/10 02:46:31;;;;;;;;;89.33;73.00;;;;;;;;5044979;28;8867;-79
2023/02/10 02:49:05;;;;;;;;;87.33;69.67;;;;;;;;5046215;28;8878;-79
2023/02/10 02:51:41;;;;;;;;;94.33;71.33;;;;;;;;5047800;28;8956;-78
2023/02/10 02:54:18;;;;;;;;;87.67;72.00;;;;;;;;5044726;28;8858;-79
2023/02/10 02:56:50;;;;;;;;;96.00;83.33;;;;;;;;5045396;28;8839;-80
2023/02/10 02:59:21;;;;;;;;;90.67;72.00;;;;;;;;5040940;28;8855;-80
2023/02/10 03:01:54;;;;;;;;;93.00;72.33;;;;;;;;5047098;28;8898;-79
2023/02/10 03:04:23;;;;;;;;;85.00;68.67;;;;;;;;5046719;28;8869;-80
2023/02/10 03:06:50;;;;;;;;;87.33;68.00;;;;;;;;5049802;28;8869;-81
2023/02/10 03:09:18;;;;;;;;;86.33;66.33;;;;;;;;5052728;28;8836;-79
2023/02/10 03:11:45;;;;;;;;;87.67;66.33;;;;;;;;5047442;28;9624;-80
2023/02/10 03:14:12;;;;;;;;;92.67;77.33;;;;;;;;5050576;28;8904;-79
2023/02/10 03:16:40;;;;;;;;;88.00;70.67;;;;;;;;5051077;28;8844;-79
2023/02/10 03:19:07;;;;;;;;;89.00;73.00;;;;;;;;5048286;28;8875;-79
2023/02/10 03:21:35;;;;;;;;;88.67;69.00;;;;;;;;5054999;28;8829;-79
2023/02/10 03:24:03;;;;;;;;;94.33;83.67;;;;;;;;5056568;28;8981;-79
2023/02/10 03:26:31;;;;;;;;;92.33;80.33;;;;;;;;5050022;28;9003;-79
2023/02/10 03:28:58;;;;;;;;;97.33;82.33;;;;;;;;5047533;28;8846;-79
2023/02/10 03:31:26;;;;;;;;;96.33;81.33;;;;;;;;5043368;28;8831;-79
2023/02/10 03:33:53;;;;;;;;;93.33;78.33;;;;;;;;5044696;28;8865;-80
2023/02/10 03:36:20;;;;;;;;;96.33;83.67;;;;;;;;5043046;28;8889;-79
2023/02/10 03:38:50;;;;;;;;;86.00;68.67;;;;;;;;5047566;28;9621;-79
2023/02/10 03:41:17;;;;;;;;;86.00;68.67;;;;;;;;5042235;28;8865;-79
2023/02/10 03:43:44;;;;;;;;;87.67;68.67;;;;;;;;5046515;28;8889;-80
2023/02/10 03:46:12;;;;;;;;;93.00;74.33;;;;;;;;5043880;28;8856;-80
2023/02/10 03:48:39;;;;;;;;;89.67;73.33;;;;;;;;5049610;28;8862;-82
2023/02/10 03:51:08;;;;;;;;;80.33;63.00;;;;;;;;5032145;28;8836;-80
2023/02/10 03:53:35;;;;;;;;;88.00;71.67;;;;;;;;5052076;28;9746;-80
2023/02/10 03:56:05;;;;;;;;;83.67;67.67;;;;;;;;5048547;28;8850;-80
2023/02/10 03:58:32;;;;;;;;;94.67;74.67;;;;;;;;5045405;28;9062;-80
2023/02/10 04:00:59;;;;;;;;;92.33;74.00;;;;;;;;5044192;28;8831;-80
2023/02/10 04:03:27;;;;;;;;;93.33;78.00;;;;;;;;5047476;28;8828;-79
2023/02/10 04:05:54;;;;;;;;;88.00;71.00;;;;;;;;5052767;28;8862;-79
2023/02/10 04:08:22;;;;;;;;;86.00;71.33;;;;;;;;5049832;28;8844;-80
2023/02/10 04:10:49;;;;;;;;;86.67;67.00;;;;;;;;5042976;28;8989;-79
2023/02/10 04:13:19;;;;;;;;;83.33;64.67;;;;;;;;5041936;28;9406;-79
2023/02/10 04:15:47;;;;;;;;;82.67;65.00;;;;;;;;5040276;28;8851;-80
2023/02/10 04:18:15;;;;;;;;;85.00;64.67;;;;;;;;5044589;28;8846;-80
2023/02/10 04:20:42;;;;;;;;;79.00;65.67;;;;;;;;5046529;28;9643;-79
2023/02/10 04:23:09;;;;;;;;;84.00;63.67;;;;;;;;5045408;28;8898;-80
2023/02/10 04:25:36;;;;;;;;;88.33;69.67;;;;;;;;5042698;28;8849;-80
2023/02/10 04:28:04;;;;;;;;;84.33;66.00;;;;;;;;5047176;28;8982;-80
2023/02/10 04:30:33;;;;;;;;;85.33;67.00;;;;;;;;5042952;28;8783;-80
2023/02/10 04:33:00;;;;;;;;;78.33;63.33;;;;;;;;5039923;28;8874;-78
2023/02/10 04:35:27;;;;;;;;;87.00;71.33;;;;;;;;5039408;28;8864;-79
2023/02/10 04:37:56;;;;;;;;;79.33;64.00;;;;;;;;5042744;28;8876;-79
2023/02/10 04:40:23;;;;;;;;;90.33;68.33;;;;;;;;5043581;28;8888;-79
2023/02/10 04:42:50;;;;;;;;;85.67;65.33;;;;;;;;5041592;28;8839;-80
2023/02/10 04:45:18;;;;;;;;;90.67;68.33;;;;;;;;5041694;28;9607;-79
2023/02/10 04:47:47;;;;;;;;;95.33;77.33;;;;;;;;5042595;28;8869;-80
2023/02/10 04:50:15;;;;;;;;;86.00;67.67;;;;;;;;5043121;28;8870;-79
2023/02/10 04:52:42;;;;;;;;;85.67;67.33;;;;;;;;5046783;28;8907;-79
2023/02/10 04:55:10;;;;;;;;;85.00;66.00;;;;;;;;5045488;28;8959;-79
2023/02/10 04:57:37;;;;;;;;;84.00;64.33;;;;;;;;5041036;28;8869;-80
2023/02/10 05:00:05;;;;;;;;;85.00;67.33;;;;;;;;5044553;28;8841;-81
2023/02/10 05:02:32;;;;;;;;;83.33;67.00;;;;;;;;5041087;28;8823;-79
2023/02/10 05:05:01;;;;;;;;;81.00;66.33;;;;;;;;5039117;28;8858;-79
2023/02/10 05:07:28;;;;;;;;;90.33;69.67;;;;;;;;5044817;28;8847;-79
2023/02/10 05:09:55;;;;;;;;;85.67;67.33;;;;;;;;5046512;28;8850;-80
2023/02/10 05:12:22;;;;;;;;;83.33;65.00;;;;;;;;5045608;28;8851;-80
2023/02/10 05:14:50;;;;;;;;;89.33;71.67;;;;;;;;5049146;28;8873;-80
2023/02/10 05:17:17;;;;;;;;;84.33;68.00;;;;;;;;5041942;28;8858;-79
2023/02/10 05:19:46;;;;;;;;;86.33;65.67;;;;;;;;5046386;28;8846;-79
2023/02/10 05:22:15;;;;;;;;;83.67;66.67;;;;;;;;5044590;28;8848;-80
2023/02/10 05:24:42;;;;;;;;;92.33;67.00;;;;;;;;5046797;28;8844;-79
2023/02/10 05:27:10;;;;;;;;;81.00;64.67;;;;;;;;5048062;28;8966;-80
2023/02/10 05:29:37;;;;;;;;;91.33;75.00;;;;;;;;5047719;28;8841;-80
2023/02/10 05:32:05;;;;;;;;;85.67;65.33;;;;;;;;5047313;28;8799;-79
2023/02/10 05:34:32;;;;;;;;;86.00;69.00;;;;;;;;5050882;28;8828;-79
2023/02/10 05:36:59;;;;;;;;;82.33;64.33;;;;;;;;5050864;28;8844;-80
2023/02/10 05:39:28;;;;;;;;;85.00;68.00;;;;;;;;5046877;28;8878;-81
2023/02/10 05:41:58;;;;;;;;;87.33;67.33;;;;;;;;5046020;28;8839;-80
2023/02/10 05:44:28;;;;;;;;;85.33;67.33;;;;;;;;5046742;28;8981;-80
2023/02/10 05:46:55;;;;;;;;;83.67;67.00;;;;;;;;5041068;28;8882;-78
2023/02/10 05:49:23;;;;;;;;;80.00;60.67;;;;;;;;5046841;28;8995;-79
2023/02/10 05:51:50;;;;;;;;;85.33;67.33;;;;;;;;5041551;28;8849;-79
2023/02/10 05:54:18;;;;;;;;;84.67;64.67;;;;;;;;5044459;28;8838;-85
2023/02/10 05:56:49;;;;;;;;;84.33;66.00;;;;;;;;5046153;28;8877;-82
2023/02/10 05:59:16;;;;;;;;;90.33;72.00;;;;;;;;5048319;28;8942;-82
2023/02/10 06:01:44;;;;;;;;;85.00;67.00;;;;;;;;5048839;28;8776;-83
2023/02/10 06:04:12;;;;;;;;;84.67;66.00;;;;;;;;5044745;28;8852;-83
2023/02/10 06:06:39;;;;;;;;;87.33;66.67;;;;;;;;5045666;28;8905;-84
2023/02/10 06:09:07;;;;;;;;;86.33;68.00;;;;;;;;5047851;28;8834;-81
2023/02/10 06:11:35;;;;;;;;;85.00;65.00;;;;;;;;5043914;28;8843;-75
2023/02/10 06:16:45;;;;;;;;;84.00;66.00;;;;;;;;5056261;28;8869;-76
2023/02/10 06:19:12;;;;;;;;;88.33;67.33;;;;;;;;5046271;28;8844;-75
2023/02/10 06:21:39;;;;;;;;;91.33;76.33;;;;;;;;5046411;28;8859;-75
2023/02/10 06:24:07;;;;;;;;;85.67;66.33;;;;;;;;5041852;28;8889;-75
2023/02/10 06:26:34;;;;;;;;;95.67;73.33;;;;;;;;5048416;28;8851;-74
2023/02/10 06:29:03;;;;;;;;;90.67;72.67;;;;;;;;5046719;28;8899;-75
2023/02/10 06:31:30;;;;;;;;;76.00;63.00;;;;;;;;5043575;28;8809;-75
2023/02/10 06:33:57;;;;;;;;;92.00;73.00;;;;;;;;5052176;28;8886;-74
2023/02/10 06:36:24;;;;;;;;;90.00;70.33;;;;;;;;5045138;28;8893;-75
2023/02/10 06:38:52;;;;;;;;;87.33;68.67;;;;;;;;5049517;28;8975;-75
2023/02/10 06:41:19;;;;;;;;;86.00;68.00;;;;;;;;5042631;28;8855;-75
2023/02/10 06:43:47;;;;;;;;;90.33;73.33;;;;;;;;5045373;28;8855;-74
2023/02/10 06:46:16;;;;;;;;;88.67;73.00;;;;;;;;5040023;28;8966;-74
2023/02/10 06:48:43;;;;;;;;;88.33;68.00;;;;;;;;5040525;28;8859;-74
2023/02/10 06:51:10;;;;;;;;;87.33;70.00;;;;;;;;5042117;28;8964;-77
2023/02/10 06:53:38;;;;;;;;;89.67;71.67;;;;;;;;5044132;28;8955;-74
2023/02/10 06:56:06;;;;;;;;;89.67;76.00;;;;;;;;5042542;28;8858;-75
2023/02/10 06:58:33;;;;;;;;;96.67;80.33;;;;;;;;5044180;28;8956;-76
2023/02/10 07:01:00;;;;;;;;;93.00;78.33;;;;;;;;5043961;28;8833;-75
2023/02/10 07:03:29;;;;;;;;;86.67;66.00;;;;;;;;5025544;28;8836;-76
2023/02/10 07:05:56;;;;;;;;;94.00;78.67;;;;;;;;5041790;28;8832;-78
2023/02/10 07:08:24;;;;;;;;;97.00;80.00;;;;;;;;5043428;28;8844;-74
2023/02/10 07:10:51;;;;;;;;;91.33;77.67;;;;;;;;5040324;28;8834;-74
2023/02/10 07:13:20;;;;;;;;;91.67;74.33;;;;;;;;5047470;28;8832;-76
2023/02/10 07:15:47;;;;;;;;;89.67;69.67;;;;;;;;5049628;28;8848;-76
2023/02/10 07:18:15;;;;;;;;;90.67;72.67;;;;;;;;5037237;28;8843;-74
2023/02/10 07:20:43;;;;;;;;;92.33;78.67;;;;;;;;5037638;28;8896;-73
2023/02/10 07:23:11;;;;;;;;;89.00;72.33;;;;;;;;5042767;28;8842;-75
2023/02/10 07:25:38;;;;;;;;;89.67;74.00;;;;;;;;5043123;28;8983;-74
2023/02/10 07:28:07;;;;;;;;;92.33;75.33;;;;;;;;5043600;28;8975;-74
2023/02/10 07:30:34;;;;;;;;;87.33;70.00;;;;;;;;5040786;28;8866;-73
2023/02/10 07:33:02;;;;;;;;;87.67;66.33;;;;;;;;5040585;28;9629;-79
2023/02/10 07:35:29;;;;;;;;;91.33;76.33;;;;;;;;5039821;28;8838;-75
2023/02/10 07:37:58;;;;;;;;;84.67;68.00;;;;;;;;5041813;28;8867;-72
2023/02/10 07:40:28;;;;;;;;;91.67;73.00;;;;;;;;5037167;28;8904;-73
2023/02/10 07:42:56;;;;;;;;;92.00;76.67;;;;;;;;5038899;28;8882;-75
2023/02/10 07:45:23;;;;;;;;;89.00;72.67;;;;;;;;5040935;28;9346;-75
2023/02/10 07:47:50;;;;;;;;;93.33;78.67;;;;;;;;5039654;28;8844;-75
2023/02/10 07:50:17;;;;;;;;;86.33;67.00;;;;;;;;5042550;28;8896;-74
2023/02/10 07:52:45;;;;;;;;;91.67;74.67;;;;;;;;5039527;28;8861;-74
2023/02/10 07:55:13;;;;;;;;;87.67;70.67;;;;;;;;5037518;28;8862;-72
2023/02/10 07:57:41;;;;;;;;;88.67;74.33;;;;;;;;5037946;28;8866;-71
2023/02/10 08:00:12;;;;;;;;;93.00;74.67;;;;;;;;5036207;28;8854;-72
2023/02/10 08:02:39;;;;;;;;;90.67;69.33;;;;;;;;5039855;28;8852;-72
2023/02/10 08:05:07;;;;;;;;;95.00;82.00;;;;;;;;5039019;28;8864;-72
2023/02/10 08:07:34;;;;;;;;;87.33;68.67;;;;;;;;5042871;28;8890;-72
2023/02/10 08:10:01;;;;;;;;;88.00;74.67;;;;;;;;5040502;28;8862;-72
2023/02/10 08:12:32;;;;;;;;;88.00;71.33;;;;;;;;5043746;28;8823;-73
2023/02/10 08:14:59;;;;;;;;;88.33;72.00;;;;;;;;5038943;28;8882;-72
2023/02/10 08:17:27;;;;;;;;;85.33;67.00;;;;;;;;5039850;28;8844;-73
2023/02/10 08:19:55;;;;;;;;;86.00;68.00;;;;;;;;5041485;28;9700;-72
2023/02/10 08:22:23;;;;;;;;;85.67;66.67;;;;;;;;5043502;28;8878;-73
2023/02/10 08:24:50;;;;;;;;;84.67;65.33;;;;;;;;5039636;28;8868;-73
2023/02/10 08:27:18;;;;;;;;;88.67;73.00;;;;;;;;5042499;28;8900;-72
2023/02/10 08:29:46;;;;;;;;;85.67;66.33;;;;;;;;5037849;28;8880;-72
2023/02/10 08:32:18;;;;;;;;;85.67;69.00;;;;;;;;5037303;28;8834;-74
2023/02/10 08:34:46;;;;;;;;;87.00;66.33;;;;;;;;5038568;28;8859;-72
2023/02/10 08:37:13;;;;;;;;;85.33;67.00;;;;;;;;5037907;28;9587;-71
2023/02/10 08:39:40;;;;;;;;;89.00;74.33;;;;;;;;5037523;28;8985;-71
2023/02/10 08:42:08;;;;;;;;;57.00;48.00;;;;;;;;5037136;28;8855;-72
2023/02/10 08:44:35;;;;;;;;;89.67;74.67;;;;;;;;5038757;28;8836;-71
2023/02/10 08:47:04;;;;;;;;;93.00;70.00;;;;;;;;5044162;28;8850;-71
2023/02/10 08:49:31;;;;;;;;;87.67;69.00;;;;;;;;5041273;28;8858;-71
2023/02/10 08:51:59;;;;;;;;;88.00;70.00;;;;;;;;5041089;28;8846;-72
2023/02/10 08:54:27;;;;;;;;;81.67;66.33;;;;;;;;5044230;28;8951;-71
2023/02/10 08:56:55;;;;;;;;;87.33;69.33;;;;;;;;5048308;28;8852;-71
2023/02/10 08:59:22;;;;;;;;;91.00;71.67;;;;;;;;5047138;28;8889;-71
2023/02/10 09:01:50;;;;;;;;;89.00;72.67;;;;;;;;5049164;28;8809;-73
2023/02/10 09:04:19;;;;;;;;;85.33;69.33;;;;;;;;5048496;28;8884;-76
2023/02/10 09:06:47;;;;;;;;;90.33;71.00;;;;;;;;5042848;28;9667;-73
2023/02/10 09:09:19;;;;;;;;;84.00;65.67;;;;;;;;5042862;28;8866;-71
2023/02/10 09:11:47;;;;;;;;;86.33;67.67;;;;;;;;5040102;28;8843;-73
2023/02/10 09:14:14;;;;;;;;;88.67;70.00;;;;;;;;5041437;28;9003;-78
2023/02/10 09:16:41;;;;;;;;;88.00;66.00;;;;;;;;5041122;28;8864;-72
2023/02/10 09:19:09;;;;;;;;;92.00;78.33;;;;;;;;5049914;28;8958;-73
2023/02/10 09:21:38;;;;;;;;;81.67;63.67;;;;;;;;5043559;28;8872;-78
2023/02/10 09:24:06;;;;;;;;;85.67;68.33;;;;;;;;5040321;28;9017;-73
2023/02/10 09:26:33;;;;;;;;;85.33;65.33;;;;;;;;5041282;28;8850;-72
2023/02/10 09:29:00;;;;;;;;;88.33;70.33;;;;;;;;5042200;28;8852;-73
2023/02/10 09:31:28;;;;;;;;;86.00;69.33;;;;;;;;5044982;28;9731;-72
2023/02/10 09:33:55;;;;;;;;;82.67;67.67;;;;;;;;5044223;28;8921;-73
2023/02/10 09:36:22;;;;;;;;;87.00;67.67;;;;;;;;5044494;28;8916;-72
2023/02/10 09:38:51;;;;;;;;;87.33;72.67;;;;;;;;5050723;28;9076;-73
2023/02/10 09:41:32;;;;;;;;;84.00;67.00;;;;;;;;5043160;28;8870;-73
2023/02/10 09:44:08;;;;;;;;;82.00;62.67;;;;;;;;5042709;28;8852;-75
2023/02/10 09:46:54;;;;;;;;;86.33;68.67;;;;;;;;5039818;28;8992;-73
2023/02/10 09:49:42;;;;;;;;;86.00;68.67;;;;;;;;5040086;28;8846;-72
2023/02/10 09:52:17;;;;;;;;;81.00;63.67;;;;;;;;5049697;28;8829;-71
2023/02/10 09:54:46;;;;;;;;;81.00;63.67;;;;;;;;5052050;28;8856;-72
2023/02/10 09:57:16;;;;;;;;;76.67;59.33;;;;;;;;5047855;28;8877;-73
2023/02/10 09:59:44;;;;;;;;;83.00;65.33;;;;;;;;5046841;28;11714;-72
2023/02/10 10:02:17;;;;;;;;;74.00;57.33;;;;;;;;5044327;28;11603;-72
2023/02/10 10:04:45;;;;;;;;;67.33;54.00;;;;;;;;5047800;28;11591;-72
2023/02/10 10:07:18;;;;;;;;;77.00;61.00;;;;;;;;5049466;28;11510;-72
2023/02/10 10:09:51;;;;;;;;;79.67;61.00;;;;;;;;5048512;28;11539;-72
2023/02/10 10:12:20;;;;;;;;;82.67;63.00;;;;;;;;5043547;28;11573;-73
2023/02/10 10:14:49;;;;;;;;;74.25;58.50;;;;;;;;5050725;28;11590;-73
2023/02/10 10:17:41;;;;;;;;;81.25;63.75;;;;;;;;5049147;28;11552;-72
2023/02/10 10:20:29;;;;;;;;;77.25;63.75;;;;;;;;5049456;28;11696;-70
2023/02/10 10:23:01;;;;;;;;;75.33;60.00;;;;;;;;5045161;28;11550;-72
2023/02/10 10:25:58;;;;;;;;;62.00;53.00;;;;;;;;5050830;28;11595;-71
2023/02/10 10:28:39;;;;;;;;;80.25;62.25;;;;;;;;5046082;28;11553;-72
2023/02/10 10:31:11;;;;;;;;;80.50;63.50;;;;;;;;5045155;28;12401;-72
2023/02/10 10:33:43;;;;;;;;;81.00;61.67;;;;;;;;5052909;28;11840;-72
2023/02/10 10:36:15;;;;;;;;;76.33;60.67;;;;;;;;5045667;28;11579;-72
2023/02/10 10:38:47;;;;;;;;;82.50;63.00;;;;;;;;5053194;28;11573;-71
2023/02/10 10:41:17;;;;;;;;;78.75;61.25;;;;;;;;5048622;28;11604;-71
2023/02/10 10:43:47;;;;;;;;;79.25;61.75;;;;;;;;5044996;28;11584;-72
2023/02/10 10:46:19;;;;;;;;;76.50;63.00;;;;;;;;5043637;28;11765;-72
2023/02/10 10:48:46;;;;;;;;;68.75;57.00;;;;;;;;5043360;28;11642;-72
2023/02/10 10:51:14;;;;;;;;;79.50;63.00;;;;;;;;5045767;28;11560;-72
2023/02/10 10:53:44;;;;;;;;;73.75;59.75;;;;;;;;5049833;28;11701;-72
2023/02/10 10:56:21;;;;;;;;;73.50;58.00;;;;;;;;5041947;28;11578;-72
2023/02/10 10:58:49;;;;;;;;;74.00;58.75;;;;;;;;5041404;28;11685;-73
2023/02/10 11:01:18;;;;;;;;;76.00;60.75;;;;;;;;5045352;28;11918;-72
2023/02/10 11:03:45;;;;;;;;;71.75;57.00;;;;;;;;5045082;28;11547;-73
2023/02/10 11:06:14;;;;;;;;;71.50;56.75;;;;;;;;5042456;28;11591;-72
2023/02/10 11:08:45;;;;;;;;;66.00;54.00;;;;;;;;5039941;28;11586;-72
2023/02/10 11:11:14;;;;;;;;;69.50;55.25;;;;;;;;5043897;28;11560;-72
2023/02/10 11:13:51;;;;;;;;;67.50;55.50;;;;;;;;5038639;28;12397;-72
2023/02/10 11:16:19;;;;;;;;;70.00;56.00;;;;;;;;5043128;28;12479;-72
2023/02/10 11:18:54;;;;;;;;;71.00;57.00;;;;;;;;5042360;28;11599;-72
2023/02/10 11:21:21;;;;;;;;;74.25;58.25;;;;;;;;5044989;28;11539;-73
2023/02/10 11:23:51;;;;;;;;;66.00;54.75;;;;;;;;5048065;28;11681;-71
2023/02/10 11:26:20;;;;;;;;;66.50;54.00;;;;;;;;5045615;28;11571;-73
2023/02/10 11:28:49;;;;;;;;;71.75;57.00;;;;;;;;5050485;28;11621;-72
2023/02/10 11:31:37;;;;;;;;;65.75;53.00;;;;;;;;5039740;28;11588;-73
2023/02/10 11:34:16;;;;;;;;;70.00;55.75;;;;;;;;5046191;28;11623;-73
2023/02/10 11:36:44;;;;;;;;;70.00;56.75;;;;;;;;5043735;28;11572;-73
2023/02/10 11:39:20;;;;;;;;;68.25;55.50;;;;;;;;5040761;28;11679;-73
2023/02/10 11:41:48;;;;;;;;;71.75;56.50;;;;;;;;5049562;28;11556;-73
2023/02/10 11:44:25;;;;;;;;;64.75;52.75;;;;;;;;5042968;28;11572;-73
2023/02/10 11:46:56;;;;;;;;;68.50;55.50;;;;;;;;5045308;28;11612;-73
2023/02/10 11:49:27;;;;;;;;;71.50;55.00;;;;;;;;5046269;28;11547;-73
2023/02/10 11:51:56;;;;;;;;;66.00;53.00;;;;;;;;5039090;28;11675;-73
2023/02/10 11:54:24;;;;;;;;;66.00;54.75;;;;;;;;5043090;28;11568;-73
2023/02/10 11:59:51;;;;;;;;;70.75;56.75;;;;;;;;5042390;28;11567;-73
2023/02/10 12:02:24;;;;;;;;;64.00;50.00;;;;;;;;5040295;28;11539;-72
2023/02/10 12:05:12;;;;;;;;;64.25;52.25;;;;;;;;5047192;28;11710;-72
2023/02/10 12:07:51;;;;;;;;;61.75;51.00;;;;;;;;5044927;28;11707;-72
2023/02/10 12:10:24;;;;;;;;;65.50;52.50;;;;;;;;5042718;28;11518;-72
2023/02/10 12:12:56;;;;;;;;;68.00;56.00;;;;;;;;5046835;28;11601;-73
2023/02/10 12:15:39;;;;;;;;;59.00;49.50;;;;;;;;5047903;28;11547;-72
2023/02/10 12:18:24;;;;;;;;;65.25;52.00;;;;;;;;5042827;28;11512;-72
2023/02/10 12:21:02;;;;;;;;;64.00;52.75;;;;;;;;5050519;28;11539;-72
2023/02/10 12:23:46;;;;;;;;;66.50;50.75;;;;;;;;5048619;28;11538;-72
2023/02/10 12:26:20;;;;;;;;;61.00;49.50;;;;;;;;5047377;28;11589;-72
2023/02/10 12:28:58;;;;;;;;;53.50;43.25;;;;;;;;5047961;28;11560;-72
2023/02/10 12:31:36;;;;;;;;;60.75;49.00;;;;;;;;5043109;28;11510;-72
2023/02/10 12:34:27;;;;;;;;;52.25;41.25;;;;;;;;5038887;28;11673;-72
2023/02/10 12:37:04;;;;;;;;;59.75;50.25;;;;;;;;5047339;28;11458;-72
2023/02/10 12:39:38;;;;;;;;;57.75;46.75;;;;;;;;5047915;28;11568;-72
2023/02/10 12:42:17;;;;;;;;;57.00;45.00;;;;;;;;5047418;28;11599;-72
2023/02/10 12:44:53;;;;;;;;;55.75;46.00;;;;;;;;5046085;28;11648;-72
2023/02/10 12:47:33;;;;;;;;;56.25;45.00;;;;;;;;5043074;28;11572;-72
2023/02/10 12:50:18;;;;;;;;;46.00;41.25;;;;;;;;5045389;28;11581;-73
2023/02/10 12:52:50;;;;;;;;;55.00;45.00;;;;;;;;5045691;28;11656;-72
2023/02/10 12:55:20;;;;;;;;;52.00;43.00;;;;;;;;5046702;28;11536;-73
2023/02/10 12:57:51;;;;;;;;;49.50;43.50;;;;;;;;5042234;28;11672;-72
2023/02/10 13:00:24;;;;;;;;;62.75;50.50;;;;;;;;5045648;28;11682;-72
2023/02/10 13:02:57;;;;;;;;;65.25;50.25;;;;;;;;5042018;28;12520;-72
2023/02/10 13:05:28;;;;;;;;;56.50;48.25;;;;;;;;5040646;28;11607;-72
2023/02/10 13:08:00;;;;;;;;;58.25;48.00;;;;;;;;5046478;28;11717;-72
2023/02/10 13:10:32;;;;;;;;;60.00;47.50;;;;;;;;5044409;28;11578;-73
2023/02/10 13:13:04;;;;;;;;;60.25;48.75;;;;;;;;5045253;28;11557;-72
2023/02/10 13:15:34;;;;;;;;;64.75;53.75;;;;;;;;5045284;28;11676;-72
2023/02/10 13:18:03;;;;;;;;;56.00;48.00;;;;;;;;5041349;28;12405;-72
2023/02/10 13:20:38;;;;;;;;;61.25;49.50;;;;;;;;5050542;28;11451;-72
2023/02/10 13:23:25;;;;;;;;;64.00;51.25;;;;;;;;5044182;28;12443;-72
2023/02/10 13:26:03;;;;;;;;;43.00;38.00;;;;;;;;5041184;28;11493;-73
2023/02/10 13:28:37;;;;;;;;;65.75;52.50;;;;;;;;5041928;28;11556;-72
2023/02/10 13:31:21;;;;;;;;;59.50;48.75;;;;;;;;5048090;28;11624;-72
2023/02/10 13:33:57;;;;;;;;;58.50;49.00;;;;;;;;5048055;28;11586;-73
2023/02/10 13:36:27;;;;;;;;;54.50;45.00;;;;;;;;5044131;28;11523;-72
2023/02/10 13:39:00;;;;;;;;;60.50;47.25;;;;;;;;5042563;28;11698;-72
2023/02/10 13:41:42;;;;;;;;;57.00;47.50;;;;;;;;5045103;28;11586;-72
2023/02/10 13:44:19;;;;;;;;;56.75;47.50;;;;;;;;5047517;28;11515;-72
2023/02/10 13:46:51;;;;;;;;;62.00;50.25;;;;;;;;5045025;28;12289;-73
2023/02/10 13:49:20;;;;;;;;;52.75;44.50;;;;;;;;5052247;28;11509;-72
2023/02/10 13:51:47;;;;;;;;;52.00;43.75;;;;;;;;5053194;28;11522;-72
2023/02/10 13:54:26;;;;;;;;;52.50;44.00;;;;;;;;5051984;28;11599;-72
2023/02/10 13:56:56;;;;;;;;;55.75;46.00;;;;;;;;5046330;28;11346;-73
2023/02/10 13:59:37;;;;;;;;;52.50;43.50;;;;;;;;5046155;28;11508;-73
2023/02/10 14:02:16;;;;;;;;;53.25;44.75;;;;;;;;5047323;28;11101;-72
2023/02/10 14:04:47;;;;;;;;;51.50;41.50;;;;;;;;5044759;28;11111;-73
2023/02/10 14:07:17;;;;;;;;;47.75;39.25;;;;;;;;5046106;28;11050;-73
2023/02/10 14:09:44;;;;;;;;;46.75;38.00;;;;;;;;5047130;28;10957;-73
2023/02/10 14:12:28;;;;;;;;;49.75;36.75;;;;;;;;5051232;28;10895;-73
2023/02/10 14:14:55;;;;;;;;;43.50;38.75;;;;;;;;5048738;28;11006;-72
2023/02/10 14:17:29;;;;;;;;;44.00;39.00;;;;;;;;5053932;28;10948;-74
2023/02/10 14:19:59;;;;;;;;;53.00;43.75;;;;;;;;5042283;28;10933;-73
2023/02/10 14:22:28;;;;;;;;;48.75;41.00;;;;;;;;5046772;28;11001;-73
2023/02/10 14:24:59;;;;;;;;;43.75;38.00;;;;;;;;5045349;28;10983;-73
2023/02/10 14:27:27;;;;;;;;;43.75;37.50;;;;;;;;5050299;28;11036;-73
2023/02/10 14:29:57;;;;;;;;;49.75;43.00;;;;;;;;5043497;28;11070;-73
2023/02/10 14:32:24;;;;;;;;;48.00;40.00;;;;;;;;5046054;28;11068;-73
2023/02/10 14:34:58;;;;;;;;;47.00;40.25;;;;;;;;5054116;28;10972;-73
2023/02/10 14:37:26;;;;;;;;;46.50;40.00;;;;;;;;5046693;28;11215;-73
2023/02/10 14:39:54;;;;;;;;;51.25;44.25;;;;;;;;5043227;28;11123;-73
2023/02/10 14:42:23;;;;;;;;;49.25;41.25;;;;;;;;5043780;28;11171;-73
2023/02/10 14:44:52;;;;;;;;;43.25;38.00;;;;;;;;5042184;28;12089;-73
2023/02/10 14:47:22;;;;;;;;;47.75;38.75;;;;;;;;5037614;28;11003;-73
2023/02/10 14:49:50;;;;;;;;;37.75;33.75;;;;;;;;5039492;28;10878;-73
2023/02/10 14:52:24;;;;;;;;;30.75;27.00;;;;;;;;5045929;28;10391;-73